createdAt,value
2017-03-13T00:03:36.742Z,72.8
2017-03-13T00:13:48.165Z,73.5
2017-03-13T00:23:59.625Z,73.9
2017-03-13T00:34:11.096Z,73.7
2017-03-13T00:44:22.541Z,74.2
2017-03-13T00:54:33.985Z,74.2
2017-03-13T01:04:45.400Z,74.6
2017-03-13T01:14:56.737Z,74.8
2017-03-13T01:25:08.127Z,75
2017-03-13T01:35:19.579Z,75
2017-03-13T01:45:31.159Z,75.9
2017-03-13T01:55:42.618Z,75.7
2017-03-13T02:05:54.182Z,76.7
2017-03-13T02:16:05.801Z,76.7
2017-03-13T02:26:17.449Z,76.5
2017-03-13T02:36:29.067Z,77
2017-03-13T02:46:40.670Z,77.5
2017-03-13T02:56:52.314Z,77.7
2017-03-13T03:07:03.983Z,79.6
2017-03-13T03:17:15.706Z,81
2017-03-13T03:27:27.500Z,81.6
2017-03-13T03:37:39.293Z,82.3
2017-03-13T03:47:51.112Z,82.3
2017-03-13T03:58:02.969Z,82.6
2017-03-13T04:08:14.845Z,82.8
2017-03-13T04:18:26.649Z,82.8
2017-03-13T04:28:38.457Z,82.6
2017-03-13T04:38:50.242Z,83.1
2017-03-13T04:49:02.107Z,82.7
2017-03-13T04:59:13.902Z,83.7
2017-03-13T05:09:25.683Z,83.8
2017-03-13T05:19:37.589Z,84.2
2017-03-13T05:29:49.473Z,84
2017-03-13T05:40:01.395Z,84.3
2017-03-13T05:50:13.308Z,85.3
2017-03-13T06:00:25.228Z,85.1
2017-03-13T06:10:37.177Z,85
2017-03-13T06:20:48.951Z,84.7
2017-03-13T06:31:00.639Z,82.8
2017-03-13T06:41:12.088Z,82
2017-03-13T06:51:23.373Z,80.2
2017-03-13T07:01:34.544Z,78.2
2017-03-13T07:11:45.508Z,75.1
2017-03-13T07:21:56.308Z,75.1
2017-03-13T07:32:07.095Z,73.3
2017-03-13T07:42:17.761Z,71.6
2017-03-13T07:52:28.322Z,69.2
2017-03-13T08:02:38.742Z,68
2017-03-13T08:12:49.128Z,65.7
2017-03-13T08:22:59.520Z,64.2
2017-03-13T08:33:09.951Z,64.3
2017-03-13T08:43:20.338Z,66.2
2017-03-13T08:53:30.648Z,61.8
2017-03-13T09:03:40.603Z,60.4
2017-03-13T09:13:50.148Z,58.5
2017-03-13T09:23:59.442Z,56
2017-03-13T09:34:08.504Z,54.4
2017-03-13T09:44:17.455Z,52.5
2017-03-13T09:54:26.176Z,56.5
2017-03-13T10:04:35.139Z,54
2017-03-13T10:14:44.151Z,51.6
2017-03-13T10:24:52.977Z,50.5
2017-03-13T10:35:01.545Z,52
2017-03-13T10:45:10.242Z,49.5
2017-03-13T10:55:19.125Z,51.8
2017-03-13T11:05:27.931Z,48.8
2017-03-13T11:15:36.677Z,51
2017-03-13T11:25:45.381Z,47.9
2017-03-13T11:35:54.033Z,48.7
2017-03-13T11:46:02.614Z,49.7
2017-03-13T11:56:11.221Z,48.8
2017-03-13T12:06:19.924Z,50.8
2017-03-13T12:16:28.584Z,50.5
2017-03-13T12:26:37.216Z,46.1
2017-03-13T12:36:45.795Z,43.6
2017-03-13T12:46:54.259Z,45
2017-03-13T12:57:02.667Z,44.9
2017-03-13T13:07:11.039Z,44.7
2017-03-13T13:17:19.388Z,43.8
2017-03-13T13:27:27.656Z,40.5
2017-03-13T13:37:35.937Z,44.5
2017-03-13T13:47:44.205Z,41.2
2017-03-13T13:57:52.481Z,43
2017-03-13T14:08:00.850Z,44.2
2017-03-13T14:18:09.511Z,46.1
2017-03-13T14:28:18.439Z,47.2
2017-03-13T14:38:27.444Z,45.8
2017-03-13T14:48:36.481Z,48.1
2017-03-13T14:58:45.706Z,49.9
2017-03-13T15:08:55.092Z,51.5
2017-03-13T15:19:04.496Z,52.4
2017-03-13T15:29:13.934Z,54.4
2017-03-13T15:39:23.450Z,57.2
2017-03-13T15:49:33.017Z,59
2017-03-13T15:59:42.780Z,60.5
2017-03-13T16:09:52.665Z,64.5
2017-03-13T16:20:02.564Z,66.4
2017-03-13T16:30:12.486Z,69.2
2017-03-13T16:40:22.446Z,70.1
2017-03-13T16:50:32.430Z,73.2
2017-03-13T17:00:42.424Z,77.1
2017-03-13T17:10:52.537Z,80.1
2017-03-13T17:21:02.896Z,83.7
2017-03-13T17:31:13.201Z,86.9
2017-03-13T17:41:23.735Z,89.6
2017-03-13T17:51:34.305Z,91.3
2017-03-13T18:01:44.905Z,92.6
2017-03-13T18:11:55.568Z,94.2
2017-03-13T18:22:06.278Z,96.1
2017-03-13T18:32:16.964Z,97.4
2017-03-13T18:42:27.689Z,98.3
2017-03-13T18:52:38.401Z,99
2017-03-13T19:02:49.130Z,100
2017-03-13T19:12:59.857Z,100
2017-03-13T19:23:10.592Z,100
2017-03-13T19:33:21.339Z,100
2017-03-13T19:43:32.056Z,100
2017-03-13T19:53:42.897Z,100
2017-03-13T20:03:53.750Z,100
2017-03-13T20:14:04.630Z,100
2017-03-13T20:24:15.544Z,100
2017-03-13T20:34:26.541Z,0
2017-03-13T20:44:37.441Z,0
2017-03-13T20:54:48.409Z,0
2017-03-13T21:04:59.369Z,0
2017-03-13T21:15:10.344Z,0
2017-03-13T21:25:21.431Z,0
2017-03-13T21:35:32.420Z,0
2017-03-13T21:45:43.473Z,0
2017-03-13T21:55:54.545Z,0
2017-03-13T22:06:05.630Z,0
2017-03-13T22:16:16.722Z,0
2017-03-13T22:26:27.815Z,0
2017-03-13T22:36:38.852Z,0
2017-03-13T22:46:49.902Z,0
2017-03-13T22:57:01.029Z,0
2017-03-13T23:07:12.187Z,0
2017-03-13T23:17:23.343Z,0
2017-03-13T23:27:34.531Z,0
2017-03-13T23:37:45.748Z,0
2017-03-13T23:47:56.955Z,0
2017-03-13T23:58:08.201Z,0
